createdAt,value
2019-01-24T00:02:01.093Z,26.90
2019-01-24T00:04:27.104Z,27.73
2019-01-24T00:06:52.970Z,26.03
2019-01-24T00:09:18.875Z,27.73
2019-01-24T00:11:44.786Z,27.97
2019-01-24T00:14:10.735Z,28.07
2019-01-24T00:16:36.666Z,26.47
2019-01-24T00:19:02.580Z,27.87
2019-01-24T00:21:28.498Z,26.73
2019-01-24T00:23:54.419Z,24.90
2019-01-24T00:26:20.312Z,24.73
2019-01-24T00:28:46.172Z,26.53
2019-01-24T00:31:12.106Z,25.80
2019-01-24T00:33:37.971Z,26.90
2019-01-24T00:36:03.881Z,26.07
2019-01-24T00:38:29.774Z,27.77
2019-01-24T00:40:55.728Z,26.23
2019-01-24T00:43:21.588Z,23.83
2019-01-24T00:45:47.490Z,24.67
2019-01-24T00:48:13.371Z,23.97
2019-01-24T00:50:39.281Z,23.30
2019-01-24T00:53:05.176Z,22.77
2019-01-24T00:55:31.046Z,22.60
2019-01-24T00:57:56.950Z,21.70
2019-01-24T01:00:24.128Z,22.67
2019-01-24T01:02:50.026Z,22.10
2019-01-24T01:05:15.896Z,20.67
2019-01-24T01:07:41.834Z,22.17
2019-01-24T01:10:08.783Z,21.27
2019-01-24T01:12:34.756Z,21.00
2019-01-24T01:15:00.631Z,22.30
2019-01-24T01:17:26.507Z,20.30
2019-01-24T01:19:52.417Z,21.83
2019-01-24T01:22:18.292Z,20.47
2019-01-24T01:24:44.200Z,20.73
2019-01-24T01:27:10.059Z,21.53
2019-01-24T01:29:35.970Z,21.67
2019-01-24T01:32:01.873Z,21.43
2019-01-24T01:34:27.891Z,21.23
2019-01-24T01:36:53.761Z,22.30
2019-01-24T01:39:19.683Z,21.20
2019-01-24T01:41:45.607Z,21.80
2019-01-24T01:44:11.484Z,20.80
2019-01-24T01:46:37.396Z,21.27
2019-01-24T01:49:03.273Z,21.93
2019-01-24T01:51:29.173Z,21.17
2019-01-24T01:53:55.031Z,22.70
2019-01-24T01:56:20.941Z,21.73
2019-01-24T01:58:46.802Z,21.47
2019-01-24T02:01:12.715Z,19.10
2019-01-24T02:03:38.588Z,19.13
2019-01-24T02:06:04.470Z,21.17
2019-01-24T02:08:30.377Z,21.70
2019-01-24T02:10:56.258Z,19.13
2019-01-24T02:13:22.209Z,20.30
2019-01-24T02:15:48.070Z,19.53
2019-01-24T02:18:14.040Z,19.73
2019-01-24T02:20:39.924Z,20.80
2019-01-24T02:23:05.804Z,20.57
2019-01-24T02:25:31.720Z,20.70
2019-01-24T02:27:57.596Z,18.93
2019-01-24T02:30:25.921Z,19.40
2019-01-24T02:32:51.836Z,20.50
2019-01-24T02:35:17.730Z,21.83
2019-01-24T02:37:43.608Z,21.17
2019-01-24T02:40:09.504Z,20.00
2019-01-24T02:42:35.391Z,20.13
2019-01-24T02:45:01.312Z,20.87
2019-01-24T02:47:27.170Z,20.43
2019-01-24T02:49:53.073Z,21.07
2019-01-24T02:52:18.947Z,21.13
2019-01-24T02:54:44.858Z,19.83
2019-01-24T02:57:10.718Z,20.50
2019-01-24T02:59:36.598Z,21.53
2019-01-24T03:02:02.809Z,21.83
2019-01-24T03:04:28.676Z,20.77
2019-01-24T03:06:54.575Z,20.80
2019-01-24T03:09:20.452Z,20.50
2019-01-24T03:11:46.393Z,20.77
2019-01-24T03:14:12.268Z,21.13
2019-01-24T03:16:38.188Z,22.47
2019-01-24T03:19:04.076Z,21.33
2019-01-24T03:21:29.958Z,23.20
2019-01-24T03:23:55.872Z,22.47
2019-01-24T03:26:21.753Z,21.43
2019-01-24T03:28:48.163Z,20.87
2019-01-24T03:31:14.084Z,21.70
2019-01-24T03:33:40.003Z,21.93
2019-01-24T03:36:05.875Z,22.63
2019-01-24T03:38:31.779Z,22.43
2019-01-24T03:40:57.654Z,22.03
2019-01-24T03:43:23.555Z,21.97
2019-01-24T03:45:49.472Z,20.60
2019-01-24T03:48:15.382Z,22.23
2019-01-24T03:50:41.248Z,21.60
2019-01-24T03:53:07.151Z,21.93
2019-01-24T03:55:33.085Z,23.50
2019-01-24T03:57:59.008Z,21.00
2019-01-24T04:00:24.932Z,22.03
2019-01-24T04:02:50.811Z,22.33
2019-01-24T04:05:16.827Z,22.83
2019-01-24T04:07:42.692Z,22.47
2019-01-24T04:10:19.384Z,22.07
2019-01-24T04:12:45.256Z,21.83
2019-01-24T04:15:17.229Z,20.23
2019-01-24T04:17:43.131Z,22.10
2019-01-24T04:20:09.750Z,22.00
2019-01-24T04:22:35.633Z,23.17
2019-01-24T04:25:01.540Z,21.40
2019-01-24T04:27:27.458Z,23.00
2019-01-24T04:29:53.355Z,23.60
2019-01-24T04:32:19.255Z,23.30
2019-01-24T04:34:45.212Z,24.20
2019-01-24T04:37:11.113Z,24.00
2019-01-24T04:39:36.988Z,24.90
2019-01-24T04:42:02.923Z,24.63
2019-01-24T04:44:28.792Z,23.90
2019-01-24T04:46:54.821Z,23.03
2019-01-24T04:49:20.720Z,23.90
2019-01-24T04:51:46.594Z,23.53
2019-01-24T04:54:12.504Z,24.27
2019-01-24T04:56:38.403Z,24.80
2019-01-24T04:59:04.311Z,26.23
2019-01-24T05:01:30.179Z,24.67
2019-01-24T05:03:56.111Z,24.00
2019-01-24T05:06:21.978Z,25.60
2019-01-24T05:08:47.894Z,24.00
2019-01-24T05:11:13.801Z,24.80
2019-01-24T05:13:39.852Z,22.80
2019-01-24T05:16:05.728Z,21.60
2019-01-24T05:18:31.645Z,25.43
2019-01-24T05:20:57.531Z,23.93
2019-01-24T05:23:23.394Z,24.63
2019-01-24T05:25:49.316Z,23.93
2019-01-24T05:28:15.186Z,24.20
2019-01-24T05:30:41.132Z,24.67
2019-01-24T05:33:07.002Z,25.27
2019-01-24T05:35:34.844Z,25.33
2019-01-24T05:38:00.734Z,25.23
2019-01-24T05:40:26.607Z,24.60
2019-01-24T05:42:52.500Z,26.73
2019-01-24T05:45:18.386Z,26.00
2019-01-24T05:47:44.303Z,25.07
2019-01-24T05:50:11.390Z,22.70
2019-01-24T05:52:37.297Z,25.00
2019-01-24T05:55:05.161Z,24.93
2019-01-24T05:57:31.064Z,23.93
2019-01-24T05:59:56.982Z,24.07
2019-01-24T06:02:22.961Z,23.47
2019-01-24T06:04:48.877Z,23.53
2019-01-24T06:07:14.750Z,25.93
2019-01-24T06:09:40.657Z,25.73
2019-01-24T06:12:06.546Z,23.40
2019-01-24T06:14:32.421Z,24.93
2019-01-24T06:16:58.316Z,25.13
2019-01-24T06:19:24.199Z,25.30
2019-01-24T06:21:50.117Z,24.37
2019-01-24T06:24:16.003Z,25.57
2019-01-24T06:26:41.909Z,24.77
2019-01-24T06:29:07.877Z,23.57
2019-01-24T06:31:33.817Z,26.53
2019-01-24T06:33:59.737Z,24.90
2019-01-24T06:36:25.638Z,24.23
2019-01-24T06:38:51.555Z,23.40
2019-01-24T06:41:17.437Z,26.57
2019-01-24T06:43:43.359Z,26.00
2019-01-24T06:46:09.230Z,26.97
2019-01-24T06:48:35.093Z,27.20
2019-01-24T06:51:01.002Z,25.77
2019-01-24T06:53:26.869Z,25.73
2019-01-24T06:55:52.786Z,24.73
2019-01-24T06:58:18.663Z,27.80
2019-01-24T07:00:44.739Z,26.10
2019-01-24T07:03:10.656Z,26.87
2019-01-24T07:05:36.634Z,27.00
2019-01-24T07:08:02.537Z,25.90
2019-01-24T07:10:28.414Z,27.37
2019-01-24T07:12:54.338Z,26.33
2019-01-24T07:15:21.219Z,26.37
2019-01-24T07:17:47.143Z,26.60
2019-01-24T07:20:15.028Z,25.73
2019-01-24T07:22:41.048Z,24.90
2019-01-24T07:25:10.539Z,25.27
2019-01-24T07:27:36.436Z,27.57
2019-01-24T07:30:09.078Z,27.90
2019-01-24T07:32:35.041Z,24.93
2019-01-24T07:35:00.947Z,26.47
2019-01-24T07:37:26.833Z,25.37
2019-01-24T07:39:52.734Z,27.33
2019-01-24T07:42:18.613Z,25.80
2019-01-24T07:44:44.522Z,25.93
2019-01-24T07:47:10.393Z,26.53
2019-01-24T07:49:36.297Z,25.93
2019-01-24T07:52:02.178Z,26.03
2019-01-24T07:54:28.099Z,25.90
2019-01-24T07:56:53.965Z,26.87
2019-01-24T07:59:19.883Z,26.93
2019-01-24T08:01:45.812Z,26.60
2019-01-24T08:04:11.719Z,26.03
2019-01-24T08:06:41.741Z,28.90
2019-01-24T08:09:07.858Z,28.03
2019-01-24T08:11:33.787Z,27.17
2019-01-24T08:13:59.690Z,26.53
2019-01-24T08:16:25.572Z,26.53
2019-01-24T08:18:51.470Z,24.10
2019-01-24T08:21:17.386Z,25.77
2019-01-24T08:23:43.330Z,26.53
2019-01-24T08:26:09.264Z,24.70
2019-01-24T08:28:35.138Z,25.20
2019-01-24T08:31:01.276Z,26.13
2019-01-24T08:33:27.226Z,23.60
2019-01-24T08:35:53.130Z,24.90
2019-01-24T08:38:19.002Z,25.93
2019-01-24T08:40:44.920Z,25.73
2019-01-24T08:43:10.781Z,26.73
2019-01-24T08:45:36.711Z,24.60
2019-01-24T08:48:02.682Z,24.90
2019-01-24T08:50:28.607Z,24.73
2019-01-24T08:52:54.484Z,25.83
2019-01-24T08:55:29.474Z,25.70
2019-01-24T08:57:55.332Z,25.67
2019-01-24T09:00:21.230Z,25.87
2019-01-24T09:02:47.621Z,26.33
2019-01-24T09:05:13.535Z,25.67
2019-01-24T09:07:39.410Z,25.17
2019-01-24T09:10:08.987Z,26.17
2019-01-24T09:12:34.945Z,26.07
2019-01-24T09:15:01.208Z,25.90
2019-01-24T09:17:27.093Z,26.20
2019-01-24T09:19:52.975Z,25.77
2019-01-24T09:22:18.873Z,25.63
2019-01-24T09:24:44.733Z,24.50
2019-01-24T09:27:10.691Z,24.67
2019-01-24T09:29:36.552Z,28.20
2019-01-24T09:32:02.563Z,25.30
2019-01-24T09:34:28.471Z,26.03
2019-01-24T09:36:54.396Z,25.10
2019-01-24T09:39:20.273Z,24.43
2019-01-24T09:41:46.151Z,24.87
2019-01-24T09:44:12.045Z,25.23
2019-01-24T09:46:37.922Z,23.10
2019-01-24T09:49:03.831Z,23.97
2019-01-24T09:51:29.684Z,25.43
2019-01-24T09:53:55.598Z,24.40
2019-01-24T09:56:21.466Z,23.67
2019-01-24T09:58:47.392Z,23.83
2019-01-24T10:01:13.280Z,24.57
2019-01-24T10:03:39.220Z,24.20
2019-01-24T10:06:05.243Z,23.77
2019-01-24T10:08:31.104Z,23.23
2019-01-24T10:10:57.039Z,23.23
2019-01-24T10:13:23.054Z,22.20
2019-01-24T10:15:48.930Z,23.53
2019-01-24T10:18:21.453Z,22.80
2019-01-24T10:20:42.613Z,23.27
2019-01-24T10:23:08.496Z,21.63
2019-01-24T10:25:35.200Z,22.53
2019-01-24T10:28:01.111Z,22.40
2019-01-24T10:30:27.150Z,21.83
2019-01-24T10:32:53.266Z,21.33
2019-01-24T10:35:19.201Z,21.73
2019-01-24T10:37:45.078Z,22.87
2019-01-24T10:40:19.638Z,22.70
2019-01-24T10:42:45.521Z,20.47
2019-01-24T10:45:14.041Z,21.10
2019-01-24T10:47:39.935Z,19.93
2019-01-24T10:50:09.371Z,20.77
2019-01-24T10:52:35.251Z,18.10
2019-01-24T10:55:01.457Z,17.20
2019-01-24T10:57:27.368Z,17.23
2019-01-24T10:59:53.267Z,17.63
2019-01-24T11:02:19.142Z,16.67
2019-01-24T11:04:45.060Z,16.47
2019-01-24T11:07:10.995Z,19.00
2019-01-24T11:09:36.876Z,18.83
2019-01-24T11:12:02.800Z,18.60
2019-01-24T11:14:28.725Z,19.13
2019-01-24T11:16:54.618Z,18.73
2019-01-24T11:19:20.491Z,18.60
2019-01-24T11:21:46.410Z,19.40
2019-01-24T11:24:12.338Z,19.43
2019-01-24T11:26:38.257Z,19.17
2019-01-24T11:29:04.166Z,19.93
2019-01-24T11:31:30.074Z,18.40
2019-01-24T11:33:55.994Z,20.23
2019-01-24T11:36:21.911Z,20.63
2019-01-24T11:38:47.923Z,19.20
2019-01-24T11:41:13.790Z,19.83
2019-01-24T11:43:39.728Z,20.87
2019-01-24T11:46:05.593Z,20.07
2019-01-24T11:48:31.455Z,18.93
2019-01-24T11:50:57.381Z,20.27
2019-01-24T11:53:23.261Z,20.30
2019-01-24T11:55:49.178Z,19.50
2019-01-24T11:58:15.059Z,19.90
2019-01-24T12:00:42.860Z,19.60
2019-01-24T12:03:08.732Z,20.50
2019-01-24T12:05:34.614Z,19.43
2019-01-24T12:08:00.538Z,18.90
2019-01-24T12:10:28.071Z,18.73
2019-01-24T12:12:53.952Z,20.17
2019-01-24T12:15:21.893Z,18.93
2019-01-24T12:17:47.797Z,19.40
2019-01-24T12:20:16.071Z,20.40
2019-01-24T12:22:41.985Z,20.53
2019-01-24T12:25:08.957Z,20.83
2019-01-24T12:27:34.867Z,19.93
2019-01-24T12:30:00.741Z,18.73
2019-01-24T12:32:26.663Z,17.40
2019-01-24T12:34:52.728Z,18.43
2019-01-24T12:37:18.675Z,21.60
2019-01-24T12:39:44.550Z,19.93
2019-01-24T12:42:10.429Z,19.20
2019-01-24T12:44:36.350Z,19.40
2019-01-24T12:47:02.225Z,18.33
2019-01-24T12:49:28.145Z,18.73
2019-01-24T12:51:54.016Z,19.30
2019-01-24T12:54:19.925Z,19.37
2019-01-24T12:56:45.796Z,20.37
2019-01-24T12:59:11.732Z,18.57
2019-01-24T13:01:37.616Z,20.10
2019-01-24T13:04:03.536Z,20.50
2019-01-24T13:06:29.418Z,20.27
2019-01-24T13:08:55.356Z,19.47
2019-01-24T13:11:21.271Z,20.23
2019-01-24T13:13:47.179Z,20.93
2019-01-24T13:16:13.081Z,20.37
2019-01-24T13:18:38.957Z,19.97
2019-01-24T13:21:04.868Z,20.50
2019-01-24T13:23:30.740Z,19.23
2019-01-24T13:25:58.720Z,20.57
2019-01-24T13:28:24.692Z,21.20
2019-01-24T13:30:50.650Z,20.53
2019-01-24T13:33:16.515Z,21.17
2019-01-24T13:35:42.433Z,20.73
2019-01-24T13:38:08.299Z,20.70
2019-01-24T13:40:34.223Z,22.07
2019-01-24T13:43:00.103Z,20.77
2019-01-24T13:45:29.022Z,21.10
2019-01-24T13:47:54.893Z,23.17
2019-01-24T13:50:20.906Z,22.67
2019-01-24T13:52:46.774Z,22.27
2019-01-24T13:55:12.706Z,23.57
2019-01-24T13:57:38.637Z,22.90
2019-01-24T14:00:08.324Z,22.80
2019-01-24T14:02:34.548Z,21.77
2019-01-24T14:05:00.453Z,23.07
2019-01-24T14:07:32.827Z,24.00
2019-01-24T14:09:54.106Z,23.87
2019-01-24T14:12:20.038Z,23.30
2019-01-24T14:14:46.448Z,22.30
2019-01-24T14:17:12.324Z,22.40
2019-01-24T14:19:39.176Z,22.77
2019-01-24T14:22:05.200Z,22.30
2019-01-24T14:24:31.069Z,21.87
2019-01-24T14:26:56.966Z,23.97
2019-01-24T14:29:22.886Z,21.63
2019-01-24T14:31:48.788Z,21.57
2019-01-24T14:34:14.830Z,21.97
2019-01-24T14:36:41.064Z,23.17
2019-01-24T14:39:07.274Z,23.20
2019-01-24T14:41:33.174Z,23.57
2019-01-24T14:43:59.045Z,22.47
2019-01-24T14:46:24.978Z,22.50
2019-01-24T14:48:50.857Z,23.47
2019-01-24T14:51:16.734Z,23.03
2019-01-24T14:53:42.644Z,23.13
2019-01-24T14:56:08.578Z,24.60
2019-01-24T14:58:34.495Z,24.60
2019-01-24T15:01:02.120Z,26.17
2019-01-24T15:03:28.126Z,23.33
2019-01-24T15:05:54.052Z,23.83
2019-01-24T15:08:19.944Z,23.83
2019-01-24T15:10:45.868Z,22.80
2019-01-24T15:13:11.738Z,24.23
2019-01-24T15:15:38.239Z,23.93
2019-01-24T15:18:05.130Z,26.87
2019-01-24T15:20:31.003Z,27.00
2019-01-24T15:22:56.915Z,25.13
2019-01-24T15:25:22.793Z,24.70
2019-01-24T15:27:48.709Z,26.63
2019-01-24T15:30:21.383Z,34.50
2019-01-24T15:32:47.250Z,36.60
2019-01-24T15:35:13.157Z,25.60
2019-01-24T15:37:39.072Z,27.43
2019-01-24T15:40:14.632Z,31.70
2019-01-24T15:42:40.569Z,37.00
2019-01-24T15:45:09.878Z,28.37
2019-01-24T15:47:35.762Z,31.27
2019-01-24T15:50:03.593Z,32.20
2019-01-24T15:52:34.010Z,27.33
2019-01-24T15:54:57.285Z,28.20
2019-01-24T15:57:23.166Z,28.70
2019-01-24T15:59:49.068Z,31.17
2019-01-24T16:02:14.954Z,27.90
2019-01-24T16:04:40.858Z,26.70
2019-01-24T16:07:06.744Z,25.90
2019-01-24T16:09:32.672Z,26.67
2019-01-24T16:11:58.551Z,28.17
2019-01-24T16:14:24.518Z,27.43
2019-01-24T16:16:50.418Z,27.03
2019-01-24T16:19:16.309Z,27.10
2019-01-24T16:21:42.263Z,28.33
2019-01-24T16:24:08.089Z,26.83
2019-01-24T16:26:34.003Z,25.77
2019-01-24T16:28:59.887Z,26.27
2019-01-24T16:31:25.785Z,27.10
2019-01-24T16:33:51.707Z,27.13
2019-01-24T16:36:17.665Z,29.67
2019-01-24T16:38:43.535Z,29.07
2019-01-24T16:41:09.445Z,26.20
2019-01-24T16:43:35.314Z,26.37
2019-01-24T16:46:01.183Z,27.30
2019-01-24T16:48:27.086Z,26.47
2019-01-24T16:50:52.963Z,26.17
2019-01-24T16:53:18.877Z,28.03
2019-01-24T16:55:44.748Z,27.07
2019-01-24T16:58:10.658Z,27.50
2019-01-24T17:00:42.386Z,26.57
2019-01-24T17:03:08.316Z,50.53
2019-01-24T17:05:34.189Z,30.63
2019-01-24T17:08:00.106Z,30.83
2019-01-24T17:10:27.390Z,30.47
2019-01-24T17:12:53.294Z,30.17
2019-01-24T17:15:19.205Z,31.43
2019-01-24T17:17:45.140Z,33.40
2019-01-24T17:20:14.417Z,29.43
2019-01-24T17:22:40.330Z,30.30
2019-01-24T17:25:09.656Z,35.63
2019-01-24T17:27:35.582Z,37.23
2019-01-24T17:30:01.453Z,30.80
2019-01-24T17:32:27.395Z,30.43
2019-01-24T17:34:53.683Z,29.23
2019-01-24T17:37:19.708Z,28.70
2019-01-24T17:39:45.723Z,26.57
2019-01-24T17:42:11.629Z,33.97
2019-01-24T17:44:37.541Z,28.83
2019-01-24T17:47:03.663Z,29.73
2019-01-24T17:49:29.613Z,29.03
2019-01-24T17:51:58.584Z,27.43
2019-01-24T17:54:24.696Z,27.07
2019-01-24T17:56:50.570Z,26.73
2019-01-24T17:59:16.508Z,26.47
2019-01-24T18:01:42.435Z,25.63
2019-01-24T18:04:08.360Z,25.50
2019-01-24T18:06:34.376Z,25.50
2019-01-24T18:09:00.263Z,25.60
2019-01-24T18:11:26.197Z,25.67
2019-01-24T18:13:52.082Z,26.47
2019-01-24T18:16:18.063Z,26.83
2019-01-24T18:18:43.931Z,26.33
2019-01-24T18:21:09.800Z,25.43
2019-01-24T18:23:35.729Z,27.00
2019-01-24T18:26:01.638Z,26.53
2019-01-24T18:28:27.545Z,25.83
2019-01-24T18:30:53.430Z,27.27
2019-01-24T18:33:19.395Z,25.33
2019-01-24T18:35:45.276Z,25.03
2019-01-24T18:38:11.247Z,27.97
2019-01-24T18:40:37.138Z,27.17
2019-01-24T18:43:05.766Z,26.93
2019-01-24T18:45:46.571Z,28.00
2019-01-24T18:48:12.533Z,26.77
2019-01-24T18:50:38.406Z,27.70
2019-01-24T18:53:04.518Z,26.43
2019-01-24T18:55:30.446Z,28.53
2019-01-24T18:57:56.437Z,27.27
2019-01-24T19:00:41.038Z,28.03
2019-01-24T19:03:07.372Z,29.90
2019-01-24T19:05:33.248Z,27.53
2019-01-24T19:07:59.207Z,26.67
2019-01-24T19:10:25.082Z,26.20
2019-01-24T19:12:51.115Z,25.63
2019-01-24T19:15:18.961Z,27.60
2019-01-24T19:17:45.720Z,27.47
2019-01-24T19:20:12.117Z,27.67
2019-01-24T19:22:38.026Z,28.17
2019-01-24T19:25:09.799Z,27.33
2019-01-24T19:27:35.735Z,28.20
2019-01-24T19:30:04.824Z,28.10
2019-01-24T19:32:30.809Z,28.87
2019-01-24T19:34:56.729Z,28.20
2019-01-24T19:37:22.677Z,28.10
2019-01-24T19:39:48.690Z,28.83
2019-01-24T19:42:14.617Z,26.73
2019-01-24T19:44:40.545Z,30.83
2019-01-24T19:47:06.552Z,29.20
2019-01-24T19:49:32.479Z,28.40
2019-01-24T19:51:58.419Z,27.93
2019-01-24T19:54:24.353Z,30.13
2019-01-24T19:56:50.231Z,28.63
2019-01-24T19:59:16.141Z,29.97
2019-01-24T20:01:42.013Z,28.50
2019-01-24T20:04:07.944Z,29.37
2019-01-24T20:06:33.828Z,29.23
2019-01-24T20:09:00.379Z,30.73
2019-01-24T20:11:26.528Z,30.17
2019-01-24T20:13:52.441Z,27.97
2019-01-24T20:16:18.357Z,39.27
2019-01-24T20:18:44.323Z,31.57
2019-01-24T20:21:10.337Z,30.27
2019-01-24T20:23:36.293Z,29.37
2019-01-24T20:26:02.193Z,29.40
2019-01-24T20:28:28.159Z,29.73
2019-01-24T20:30:54.067Z,28.23
2019-01-24T20:33:20.030Z,29.07
2019-01-24T20:35:49.370Z,29.17
2019-01-24T20:38:15.311Z,29.20
2019-01-24T20:40:41.345Z,28.43
2019-01-24T20:43:09.152Z,28.40
2019-01-24T20:45:35.103Z,28.67
2019-01-24T20:48:01.009Z,31.00
2019-01-24T20:50:26.963Z,30.30
2019-01-24T20:52:52.886Z,31.10
2019-01-24T20:55:18.842Z,32.67
2019-01-24T20:57:44.754Z,33.27
2019-01-24T21:00:16.962Z,30.63
2019-01-24T21:02:43.120Z,29.83
2019-01-24T21:05:11.272Z,29.33
2019-01-24T21:07:37.286Z,29.90
2019-01-24T21:10:07.030Z,29.57
2019-01-24T21:12:32.970Z,31.37
2019-01-24T21:14:58.914Z,29.47
2019-01-24T21:17:24.886Z,31.73
2019-01-24T21:19:50.829Z,31.83
2019-01-24T21:22:16.721Z,31.57
2019-01-24T21:24:46.104Z,33.90
2019-01-24T21:27:12.111Z,31.03
2019-01-24T21:29:38.056Z,30.97
2019-01-24T21:32:03.999Z,32.07
2019-01-24T21:34:29.953Z,33.00
2019-01-24T21:36:55.927Z,31.33
2019-01-24T21:39:22.389Z,31.00
2019-01-24T21:41:48.492Z,31.47
2019-01-24T21:44:14.400Z,30.93
2019-01-24T21:46:40.364Z,31.23
2019-01-24T21:49:06.270Z,32.43
2019-01-24T21:51:32.199Z,33.23
2019-01-24T21:53:58.111Z,34.10
2019-01-24T21:56:24.087Z,35.00
2019-01-24T21:58:50.031Z,37.30
2019-01-24T22:01:15.969Z,37.57
2019-01-24T22:03:41.870Z,38.83
2019-01-24T22:06:07.832Z,35.70
2019-01-24T22:08:33.742Z,38.20
2019-01-24T22:10:59.681Z,39.13
2019-01-24T22:13:25.624Z,36.93
2019-01-24T22:15:51.885Z,38.27
2019-01-24T22:18:20.970Z,37.13
2019-01-24T22:20:46.991Z,34.20
2019-01-24T22:23:12.928Z,33.77
2019-01-24T22:25:38.889Z,34.47
2019-01-24T22:28:04.800Z,33.60
2019-01-24T22:30:35.632Z,35.37
2019-01-24T22:33:02.205Z,33.63
2019-01-24T22:35:28.129Z,32.50
2019-01-24T22:37:54.087Z,31.87
2019-01-24T22:40:20.030Z,30.00
2019-01-24T22:42:45.923Z,31.37
2019-01-24T22:45:15.118Z,27.77
2019-01-24T22:47:41.024Z,29.23
2019-01-24T22:50:10.175Z,29.83
2019-01-24T22:52:36.066Z,28.07
2019-01-24T22:55:02.874Z,31.37
2019-01-24T22:57:28.810Z,30.50
2019-01-24T22:59:54.872Z,29.77
2019-01-24T23:02:20.818Z,29.27
2019-01-24T23:04:46.712Z,29.50
2019-01-24T23:07:12.663Z,30.67
2019-01-24T23:09:44.011Z,29.90
2019-01-24T23:12:06.663Z,29.03
2019-01-24T23:14:32.700Z,29.53
2019-01-24T23:16:58.665Z,31.83
2019-01-24T23:19:24.566Z,29.47
2019-01-24T23:21:50.509Z,29.33
2019-01-24T23:24:16.453Z,30.27
2019-01-24T23:26:42.348Z,29.90
2019-01-24T23:29:08.296Z,29.77
2019-01-24T23:31:34.363Z,29.80
2019-01-24T23:34:00.321Z,29.70
2019-01-24T23:36:26.224Z,29.90
2019-01-24T23:38:52.171Z,30.20
2019-01-24T23:41:18.125Z,28.17
2019-01-24T23:43:44.095Z,28.73
2019-01-24T23:46:10.196Z,29.20
2019-01-24T23:48:36.103Z,27.40
2019-01-24T23:51:02.058Z,30.10
2019-01-24T23:53:28.016Z,30.87
2019-01-24T23:55:53.958Z,29.77
2019-01-24T23:58:19.862Z,29.70
